createdAt,value
2023-02-03T00:01:43.134Z,9.35
2023-02-03T00:06:05.394Z,11.45
2023-02-03T00:10:27.600Z,11.15
2023-02-03T00:14:50.450Z,15.00
2023-02-03T00:19:12.387Z,9.38
2023-02-03T00:23:34.891Z,12.15
2023-02-03T00:27:57.133Z,11.27
2023-02-03T00:32:19.179Z,9.60
2023-02-03T00:36:43.049Z,7.78
2023-02-03T00:41:06.887Z,10.30
2023-02-03T00:45:29.051Z,11.05
2023-02-03T00:49:51.828Z,17.65
2023-02-03T00:54:14.050Z,11.13
2023-02-03T00:58:36.958Z,11.32
2023-02-03T01:02:59.219Z,6.43
2023-02-03T01:07:21.369Z,5.78
2023-02-03T01:11:43.941Z,9.45
2023-02-03T01:16:14.888Z,10.27
2023-02-03T01:20:37.490Z,7.13
2023-02-03T01:24:59.279Z,5.82
2023-02-03T01:29:21.362Z,7.60
2023-02-03T01:33:48.918Z,8.73
2023-02-03T01:38:10.781Z,5.45
2023-02-03T01:42:34.503Z,5.57
2023-02-03T01:46:56.459Z,7.68
2023-02-03T01:51:18.438Z,8.73
2023-02-03T01:55:46.939Z,5.47
2023-02-03T02:00:09.980Z,8.25
2023-02-03T02:05:07.511Z,8.43
2023-02-03T02:09:30.561Z,9.10
2023-02-03T02:13:55.722Z,9.93
2023-02-03T02:18:47.911Z,9.25
2023-02-03T02:23:52.877Z,9.10
2023-02-03T02:28:38.881Z,10.00
2023-02-03T02:33:09.581Z,8.95
2023-02-03T02:37:43.900Z,10.85
2023-02-03T02:42:21.321Z,11.90
2023-02-03T02:46:53.821Z,10.75
2023-02-03T02:51:17.302Z,11.52
2023-02-03T02:55:42.320Z,12.45
2023-02-03T03:00:07.060Z,13.18
2023-02-03T03:04:34.300Z,9.65
2023-02-03T03:09:10.843Z,11.00
2023-02-03T03:13:42.189Z,8.93
2023-02-03T03:18:09.947Z,19.67
2023-02-03T03:22:45.962Z,9.65
2023-02-03T03:27:19.304Z,9.93
2023-02-03T03:31:41.887Z,9.65
2023-02-03T03:36:28.152Z,12.15
2023-02-03T03:40:59.885Z,8.77
2023-02-03T03:45:38.468Z,12.60
2023-02-03T03:50:04.322Z,11.07
2023-02-03T03:54:28.909Z,11.02
2023-02-03T03:58:53.644Z,11.07
2023-02-03T04:03:48.481Z,12.70
2023-02-03T04:08:10.754Z,13.05
2023-02-03T04:12:32.875Z,10.90
2023-02-03T04:16:55.215Z,15.38
2023-02-03T04:21:17.175Z,13.95
2023-02-03T04:25:39.267Z,15.23
2023-02-03T04:30:01.496Z,19.10
2023-02-03T04:34:23.515Z,15.65
2023-02-03T04:38:45.723Z,17.88
2023-02-03T04:43:08.813Z,19.38
2023-02-03T04:47:30.717Z,18.15
2023-02-03T04:51:53.032Z,17.45
2023-02-03T04:56:16.657Z,21.23
2023-02-03T05:00:39.534Z,21.80
2023-02-03T05:05:01.115Z,18.83
2023-02-03T05:09:24.176Z,18.35
2023-02-03T05:13:46.520Z,21.25
2023-02-03T05:18:08.835Z,22.65
2023-02-03T05:22:31.076Z,21.52
2023-02-03T05:26:53.075Z,25.00
2023-02-03T05:31:15.630Z,20.52
2023-02-03T05:35:38.071Z,22.65
2023-02-03T05:40:20.089Z,18.33
2023-02-03T05:44:42.418Z,17.88
2023-02-03T05:49:04.402Z,20.38
2023-02-03T05:53:27.375Z,20.48
2023-02-03T05:57:50.216Z,19.10
2023-02-03T06:02:12.221Z,19.67
2023-02-03T06:06:34.643Z,19.80
2023-02-03T06:11:00.378Z,17.20
2023-02-03T06:15:22.175Z,21.63
2023-02-03T06:19:43.834Z,16.83
2023-02-03T06:24:07.076Z,13.52
2023-02-03T06:28:30.415Z,17.02
2023-02-03T06:32:52.576Z,20.27
2023-02-03T06:37:15.208Z,13.35
2023-02-03T06:41:37.259Z,12.65
2023-02-03T06:45:59.631Z,13.32
2023-02-03T06:50:21.880Z,11.23
2023-02-03T06:54:43.815Z,10.50
2023-02-03T06:59:06.483Z,11.25
2023-02-03T07:03:31.329Z,9.13
2023-02-03T07:07:53.117Z,10.82
2023-02-03T07:12:15.475Z,8.98
2023-02-03T07:16:37.763Z,8.05
2023-02-03T07:21:00.065Z,8.10
2023-02-03T07:25:23.157Z,7.55
2023-02-03T07:29:45.497Z,7.55
2023-02-03T07:34:07.909Z,5.22
2023-02-03T07:38:30.618Z,9.05
2023-02-03T07:42:53.654Z,8.55
2023-02-03T07:47:15.637Z,6.95
2023-02-03T07:51:38.241Z,8.43
2023-02-03T07:56:05.280Z,6.57
2023-02-03T08:00:27.829Z,7.18
2023-02-03T08:04:50.675Z,10.35
2023-02-03T08:09:12.418Z,7.63
2023-02-03T08:13:34.600Z,9.25
2023-02-03T08:17:56.737Z,10.65
2023-02-03T08:22:19.533Z,8.63
2023-02-03T08:26:41.498Z,10.23
2023-02-03T08:31:10.392Z,9.05
2023-02-03T08:35:32.746Z,11.38
2023-02-03T08:39:54.636Z,11.02
2023-02-03T08:44:18.743Z,11.45
2023-02-03T08:48:41.275Z,10.98
2023-02-03T08:53:03.503Z,10.45
2023-02-03T08:57:25.555Z,10.60
2023-02-03T09:01:48.666Z,12.85
2023-02-03T09:06:13.323Z,12.20
2023-02-03T09:10:35.912Z,8.95
2023-02-03T09:14:58.380Z,10.82
2023-02-03T09:19:20.729Z,11.63
2023-02-03T09:23:43.398Z,7.22
2023-02-03T09:28:05.578Z,6.03
2023-02-03T09:32:27.470Z,8.75
2023-02-03T09:36:51.573Z,10.35
2023-02-03T09:41:45.674Z,9.57
2023-02-03T09:46:12.692Z,10.68
2023-02-03T09:50:37.086Z,7.22
2023-02-03T09:55:15.656Z,8.43
2023-02-03T09:59:39.015Z,8.65
2023-02-03T10:04:24.696Z,10.73
2023-02-03T10:09:12.037Z,7.88
2023-02-03T10:13:52.255Z,8.38
2023-02-03T10:18:23.058Z,8.10
2023-02-03T10:23:12.484Z,11.35
2023-02-03T10:27:37.430Z,9.23
2023-02-03T10:32:00.627Z,10.23
2023-02-03T10:36:44.357Z,7.78
2023-02-03T10:41:06.831Z,8.73
2023-02-03T10:45:38.690Z,14.02
2023-02-03T10:50:08.014Z,10.20
2023-02-03T10:54:33.465Z,12.68
2023-02-03T10:58:59.234Z,10.60
2023-02-03T11:03:29.005Z,11.70
2023-02-03T11:07:52.525Z,12.38
2023-02-03T11:12:18.759Z,9.80
2023-02-03T11:16:44.139Z,8.80
2023-02-03T11:21:42.823Z,11.88
2023-02-03T11:26:14.605Z,11.10
2023-02-03T11:30:38.165Z,10.45
2023-02-03T11:35:13.862Z,15.15
2023-02-03T11:39:36.544Z,11.65
2023-02-03T11:43:59.849Z,10.93
2023-02-03T11:49:04.274Z,10.30
2023-02-03T11:53:57.815Z,12.43
2023-02-03T11:58:41.784Z,8.43
2023-02-03T12:03:45.009Z,7.60
2023-02-03T12:08:39.534Z,7.13
2023-02-03T12:13:39.897Z,8.63
2023-02-03T12:18:11.148Z,8.63
2023-02-03T12:23:14.347Z,7.82
2023-02-03T12:28:23.733Z,10.05
2023-02-03T12:33:19.241Z,11.77
2023-02-03T12:38:21.645Z,13.00
2023-02-03T12:43:13.768Z,7.95
2023-02-03T12:47:41.365Z,9.20
2023-02-03T12:52:23.224Z,9.18
2023-02-03T12:56:48.990Z,8.35
2023-02-03T13:01:49.803Z,7.22
2023-02-03T13:06:37.110Z,10.48
2023-02-03T13:11:23.458Z,8.07
2023-02-03T13:15:48.909Z,7.82
2023-02-03T13:20:29.411Z,7.85
2023-02-03T13:25:17.768Z,6.80
2023-02-03T13:30:30.398Z,7.32
2023-02-03T13:35:21.681Z,7.85
2023-02-03T13:40:28.484Z,10.13
2023-02-03T13:45:40.752Z,9.85
2023-02-03T13:50:17.865Z,10.98
2023-02-03T13:54:44.626Z,8.20
2023-02-03T13:59:15.886Z,8.55
2023-02-03T14:03:37.896Z,8.75
2023-02-03T14:08:25.688Z,9.02
2023-02-03T14:12:50.772Z,10.77
2023-02-03T14:17:34.677Z,8.80
2023-02-03T14:21:56.451Z,7.40
2023-02-03T14:26:38.778Z,12.63
2023-02-03T14:31:16.677Z,12.80
2023-02-03T14:35:40.897Z,10.55
2023-02-03T14:40:38.210Z,8.30
2023-02-03T14:45:23.125Z,13.23
2023-02-03T14:50:20.767Z,12.70
2023-02-03T14:55:14.365Z,11.02
2023-02-03T14:59:56.835Z,9.63
2023-02-03T15:04:19.246Z,13.07
2023-02-03T15:08:49.178Z,13.35
2023-02-03T15:13:31.711Z,18.40
2023-02-03T15:18:00.352Z,16.65
2023-02-03T15:22:29.211Z,9.45
2023-02-03T15:26:57.067Z,12.95
2023-02-03T15:31:29.298Z,18.98
2023-02-03T15:35:58.647Z,14.38
2023-02-03T15:40:25.158Z,16.67
2023-02-03T15:45:13.626Z,14.82
2023-02-03T15:49:41.947Z,17.70
2023-02-03T15:54:12.609Z,15.93
2023-02-03T15:58:46.101Z,15.98
2023-02-03T16:03:21.723Z,13.15
2023-02-03T16:07:43.768Z,13.75
2023-02-03T16:12:28.571Z,21.55
2023-02-03T16:17:04.768Z,17.08
2023-02-03T16:21:51.247Z,14.80
2023-02-03T16:26:20.949Z,15.65
2023-02-03T16:31:33.552Z,19.63
2023-02-03T16:36:17.052Z,22.67
2023-02-03T16:40:57.930Z,15.55
2023-02-03T16:45:39.802Z,18.23
2023-02-03T16:50:32.794Z,17.75
2023-02-03T16:55:00.034Z,14.65
2023-02-03T16:59:22.296Z,15.73
2023-02-03T17:03:44.804Z,20.63
2023-02-03T17:08:07.847Z,15.00
2023-02-03T17:12:31.689Z,20.40
2023-02-03T17:16:54.207Z,17.85
2023-02-03T17:21:29.485Z,18.02
2023-02-03T17:25:51.967Z,17.38
2023-02-03T17:30:14.788Z,19.73
2023-02-03T17:34:37.285Z,14.70
2023-02-03T17:57:26.958Z,18.80
2023-02-03T18:01:49.190Z,17.13
2023-02-03T18:06:13.164Z,20.50
2023-02-03T18:10:36.347Z,17.02
2023-02-03T18:14:58.679Z,18.00
2023-02-03T18:19:21.120Z,17.70
2023-02-03T18:23:43.536Z,20.48
2023-02-03T18:28:05.625Z,18.23
2023-02-03T18:32:27.892Z,16.60
2023-02-03T18:36:50.185Z,20.70
2023-02-03T18:41:22.099Z,18.15
2023-02-03T18:45:44.863Z,20.05
2023-02-03T18:50:07.360Z,18.40
2023-02-03T18:54:29.908Z,16.02
2023-02-03T18:58:53.018Z,20.10
2023-02-03T19:03:15.188Z,19.77
2023-02-03T19:07:37.581Z,14.60
2023-02-03T19:12:00.073Z,18.75
2023-02-03T19:16:22.562Z,22.33
2023-02-03T19:20:45.195Z,20.90
2023-02-03T19:25:08.058Z,19.27
2023-02-03T19:29:30.177Z,21.15
2023-02-03T19:33:52.139Z,23.38
2023-02-03T19:38:14.279Z,14.57
2023-02-03T19:42:36.266Z,19.67
2023-02-03T19:46:58.081Z,17.08
2023-02-03T19:51:20.431Z,19.92
2023-02-03T19:55:46.559Z,29.08
2023-02-03T20:00:09.942Z,17.50
2023-02-03T20:04:42.025Z,24.55
2023-02-03T20:09:06.378Z,19.27
2023-02-03T20:13:28.707Z,27.23
2023-02-03T20:17:51.068Z,21.10
2023-02-03T20:22:13.279Z,19.70
2023-02-03T20:26:35.324Z,23.10
2023-02-03T20:31:02.058Z,22.02
2023-02-03T20:35:25.804Z,22.58
2023-02-03T20:39:47.703Z,25.92
2023-02-03T20:44:13.140Z,24.67
2023-02-03T20:48:35.217Z,18.05
2023-02-03T20:52:57.036Z,29.50
2023-02-03T20:57:20.073Z,25.00
2023-02-03T21:01:42.245Z,24.55
2023-02-03T21:06:17.109Z,22.13
2023-02-03T21:10:41.014Z,30.85
2023-02-03T21:15:03.343Z,24.20
2023-02-03T21:19:33.393Z,27.33
2023-02-03T21:23:56.251Z,20.08
2023-02-03T21:28:26.836Z,31.20
2023-02-03T21:32:48.849Z,28.13
2023-02-03T21:37:38.935Z,23.38
2023-02-03T21:42:41.508Z,33.47
2023-02-03T21:47:15.313Z,25.98
2023-02-03T21:51:39.868Z,26.40
2023-02-03T21:56:18.800Z,25.83
2023-02-03T22:00:48.192Z,24.63
2023-02-03T22:05:16.914Z,19.45
2023-02-03T22:09:39.231Z,27.52
2023-02-03T22:14:01.768Z,39.05
2023-02-03T22:18:23.908Z,24.23
2023-02-03T22:22:45.767Z,27.60
2023-02-03T22:27:07.932Z,31.40
2023-02-03T22:31:30.134Z,28.15
2023-02-03T22:35:52.573Z,18.80
2023-02-03T22:40:14.840Z,17.52
2023-02-03T22:44:36.585Z,17.83
2023-02-03T22:48:58.527Z,18.02
2023-02-03T22:53:20.644Z,26.25
2023-02-03T22:57:42.902Z,23.13
2023-02-03T23:02:05.223Z,22.13
2023-02-03T23:06:27.583Z,27.00
2023-02-03T23:10:49.926Z,27.02
2023-02-03T23:15:12.664Z,26.80
2023-02-03T23:19:34.976Z,24.83
2023-02-03T23:23:56.809Z,23.13
2023-02-03T23:28:19.035Z,33.50
2023-02-03T23:32:41.328Z,30.08
2023-02-03T23:37:03.299Z,26.20
2023-02-03T23:41:25.749Z,28.05
2023-02-03T23:45:47.867Z,24.13
2023-02-03T23:50:13.987Z,25.23
2023-02-03T23:54:35.962Z,17.67
2023-02-03T23:58:57.630Z,27.88
